Time;durP1;ratioP1;P1;durP2;ratioP2;P2;SDS_P1;SDS_P2;PMS_P1;PMS_P2;Temp;Humidity;BMP_temperature;BMP_pressure;BME280_temperature;BME280_humidity;BME280_pressure;Samples;Min_cycle;Max_cycle;Signal;HPM_P1;HPM_P2
2022/02/23 00:00:32;;;;;;;30.42;14.23;;;1.80;99.90;;;;;;5040250;28;20029;-95
2022/02/23 00:02:58;;;;;;;28.92;15.23;;;1.80;99.90;;;;;;5040188;28;20108;-94
2022/02/23 00:05:24;;;;;;;38.58;17.15;;;1.70;99.90;;;;;;5040187;28;20021;-95
2022/02/23 00:07:50;;;;;;;49.67;21.15;;;1.70;99.90;;;;;;5040067;28;20112;-95
2022/02/23 00:10:16;;;;;;;50.03;19.90;;;1.70;99.90;;;;;;5039986;28;20025;-95
2022/02/23 00:12:42;;;;;;;39.50;17.73;;;1.60;99.90;;;;;;5039951;28;20040;-95
2022/02/23 00:15:09;;;;;;;36.78;17.35;;;1.60;99.90;;;;;;5040067;28;20088;-94
2022/02/23 00:17:37;;;;;;;48.70;20.80;;;1.60;99.90;;;;;;5039792;28;20032;-95
2022/02/23 00:20:04;;;;;;;39.15;18.10;;;1.60;99.90;;;;;;5056868;28;20066;-94
2022/02/23 00:22:32;;;;;;;37.63;16.63;;;1.60;99.90;;;;;;5059975;28;20093;-95
2022/02/23 00:24:58;;;;;;;39.22;15.55;;;1.50;99.90;;;;;;5059734;28;20017;-94
2022/02/23 00:27:24;;;;;;;30.98;15.00;;;1.50;99.90;;;;;;5059448;28;20017;-94
2022/02/23 00:29:50;;;;;;;34.15;14.95;;;1.50;99.90;;;;;;5059760;28;20421;-95
2022/02/23 00:32:16;;;;;;;26.83;13.30;;;1.50;99.90;;;;;;5059386;28;20091;-94
2022/02/23 00:34:41;;;;;;;30.02;13.95;;;1.40;99.90;;;;;;5059603;28;20475;-95
2022/02/23 00:37:07;;;;;;;29.25;14.20;;;1.50;99.90;;;;;;5059430;28;20028;-94
2022/02/23 00:39:33;;;;;;;43.78;16.05;;;1.50;99.90;;;;;;5059332;28;20035;-94
2022/02/23 00:41:58;;;;;;;32.65;14.80;;;1.50;99.90;;;;;;5059595;28;20039;-94
2022/02/23 00:44:24;;;;;;;38.42;16.08;;;1.50;99.90;;;;;;5059458;28;20024;-94
2022/02/23 00:46:50;;;;;;;43.47;16.20;;;1.50;99.90;;;;;;5059347;28;20028;-94
2022/02/23 00:49:15;;;;;;;35.88;14.35;;;1.50;99.90;;;;;;5059422;28;20028;-94
2022/02/23 00:51:41;;;;;;;28.48;13.43;;;1.50;99.90;;;;;;5059517;28;20386;-95
2022/02/23 00:54:07;;;;;;;34.92;14.32;;;1.50;99.90;;;;;;5059318;28;20028;-96
2022/02/23 00:56:33;;;;;;;32.13;14.68;;;1.50;99.90;;;;;;5059156;28;20028;-95
2022/02/23 00:58:58;;;;;;;32.03;14.90;;;1.50;99.90;;;;;;5059115;28;20029;-95
2022/02/23 01:01:24;;;;;;;31.73;14.50;;;1.50;99.90;;;;;;5059123;28;20032;-95
2022/02/23 01:06:57;;;;;;;25.15;11.93;;;1.40;99.90;;;;;;5071944;28;20036;-96
2022/02/23 01:09:22;;;;;;;27.70;13.43;;;1.40;99.90;;;;;;5058757;28;20470;-95
2022/02/23 01:19:52;;;;;;;29.02;12.88;;;1.30;99.90;;;;;;4977147;28;20037;-96
2022/02/23 01:28:48;;;;;;;19.15;10.15;;;1.30;99.90;;;;;;4928719;28;20029;-95
2022/02/23 01:31:14;;;;;;;29.50;11.88;;;1.30;99.90;;;;;;4959855;28;20121;-95
2022/02/23 01:34:15;;;;;;;28.40;12.18;;;1.30;99.90;;;;;;5031685;28;20036;-95
2022/02/23 01:39:53;;;;;;;36.08;15.65;;;1.20;99.90;;;;;;5045260;28;20025;-95
2022/02/23 01:42:19;;;;;;;31.50;14.07;;;1.20;99.90;;;;;;5058279;28;20040;-95
2022/02/23 01:44:45;;;;;;;27.08;13.68;;;1.10;99.90;;;;;;5058437;28;20471;-95
2022/02/23 01:47:10;;;;;;;29.20;14.75;;;1.10;99.90;;;;;;5058364;28;20356;-95
2022/02/23 01:49:36;;;;;;;28.17;14.13;;;1.10;99.90;;;;;;5058378;28;20020;-95
2022/02/23 01:52:02;;;;;;;31.65;16.13;;;1.00;99.90;;;;;;5059106;28;20021;-95
2022/02/23 01:54:28;;;;;;;30.95;14.68;;;1.00;99.90;;;;;;5058021;28;20039;-95
2022/02/23 01:56:54;;;;;;;32.10;16.15;;;0.90;99.90;;;;;;5058213;28;20445;-96
2022/02/23 01:59:19;;;;;;;28.02;14.43;;;0.90;99.90;;;;;;5057801;28;20460;-95
2022/02/23 02:01:45;;;;;;;25.30;14.95;;;0.80;99.90;;;;;;5058125;28;20111;-96
2022/02/23 02:04:11;;;;;;;24.08;13.85;;;0.80;99.90;;;;;;5057980;28;20024;-95
2022/02/23 02:06:36;;;;;;;28.65;14.35;;;0.80;99.90;;;;;;5058075;28;20112;-94
2022/02/23 02:09:02;;;;;;;27.65;13.93;;;0.70;99.90;;;;;;5057900;28;20032;-95
2022/02/23 02:11:28;;;;;;;29.67;13.82;;;0.70;99.90;;;;;;5057979;28;20047;-94
2022/02/23 02:13:54;;;;;;;26.50;13.48;;;0.70;99.90;;;;;;5057621;28;20028;-95
2022/02/23 02:16:19;;;;;;;26.95;13.32;;;0.60;99.90;;;;;;5057774;28;20074;-95
2022/02/23 02:18:45;;;;;;;24.92;13.40;;;0.60;99.90;;;;;;5050703;28;20051;-95
2022/02/23 02:21:11;;;;;;;24.73;12.52;;;0.60;99.90;;;;;;5033814;28;20017;-96
2022/02/23 02:23:37;;;;;;;21.10;11.68;;;0.50;99.90;;;;;;5037551;28;20032;-96
2022/02/23 02:26:03;;;;;;;26.33;13.43;;;0.40;99.90;;;;;;5037893;28;20478;-95
2022/02/23 02:28:29;;;;;;;19.48;11.25;;;0.40;99.90;;;;;;5037686;28;20021;-95
2022/02/23 02:30:55;;;;;;;18.02;11.10;;;0.40;99.90;;;;;;5037444;28;20074;-96
2022/02/23 02:33:21;;;;;;;19.00;11.35;;;0.30;99.90;;;;;;5037513;28;20430;-95
2022/02/23 02:35:46;;;;;;;23.55;13.32;;;0.30;99.90;;;;;;5037327;28;20028;-96
2022/02/23 02:38:12;;;;;;;24.52;11.98;;;0.30;99.90;;;;;;5037725;28;20025;-95
2022/02/23 02:40:38;;;;;;;18.00;11.70;;;0.20;99.90;;;;;;5037256;28;20029;-96
2022/02/23 02:43:07;;;;;;;14.18;9.10;;;0.20;99.90;;;;;;5037487;28;20033;-96
2022/02/23 02:45:33;;;;;;;16.02;9.30;;;0.20;99.90;;;;;;5037394;28;20021;-96
2022/02/23 02:47:59;;;;;;;20.00;10.15;;;0.20;99.90;;;;;;5037364;28;20025;-96
2022/02/23 02:50:25;;;;;;;18.58;8.52;;;0.30;99.90;;;;;;5037299;28;20057;-96
2022/02/23 02:52:51;;;;;;;19.27;9.45;;;0.40;99.90;;;;;;5037236;28;20025;-95
2022/02/23 02:55:16;;;;;;;15.65;9.10;;;0.30;99.90;;;;;;5037008;28;20107;-95
2022/02/23 02:57:42;;;;;;;16.02;9.30;;;0.40;99.90;;;;;;5037098;28;20078;-95
2022/02/23 03:00:10;;;;;;;17.05;10.02;;;0.40;99.90;;;;;;5037317;28;20035;-95
2022/02/23 04:02:08;;;;;;;22.25;10.63;;;0.10;99.90;;;;;;5035340;23;20047;-96
2022/02/23 04:04:35;;;;;;;30.15;13.50;;;0.10;99.90;;;;;;4986361;28;20027;-96
2022/02/23 04:07:07;;;;;;;28.00;13.20;;;0.00;99.90;;;;;;4970517;28;20037;-96
2022/02/23 04:09:33;;;;;;;25.17;12.27;;;0.00;99.90;;;;;;5031991;23;20030;-96
2022/02/23 04:12:06;;;;;;;26.75;12.63;;;0.10;99.90;;;;;;4985798;28;20035;-96
2022/02/23 04:14:34;;;;;;;22.85;12.10;;;0.10;99.90;;;;;;4980089;28;20038;-96
2022/02/23 04:17:04;;;;;;;19.45;10.77;;;0.10;99.90;;;;;;5460920;23;20134;-96
2022/02/23 04:19:30;;;;;;;25.00;11.98;;;0.10;99.90;;;;;;4993053;23;20105;-96
2022/02/23 04:22:14;;;;;;;26.85;13.23;;;0.10;99.90;;;;;;4985893;28;20041;-96
2022/02/23 04:24:40;;;;;;;23.00;12.95;;;0.10;99.90;;;;;;4984926;28;20034;-96
2022/02/23 04:27:07;;;;;;;23.55;12.65;;;0.10;99.90;;;;;;4987059;28;20054;-96
2022/02/23 04:29:33;;;;;;;29.08;14.25;;;0.00;99.90;;;;;;4989718;28;20033;-96
2022/02/23 04:31:59;;;;;;;33.95;16.45;;;0.10;99.90;;;;;;4976116;28;20098;-96
2022/02/23 04:34:28;;;;;;;32.58;16.98;;;0.00;99.90;;;;;;4988374;28;20050;-96
2022/02/23 04:44:44;;;;;;;43.85;17.00;;;0.30;99.90;;;;;;5749760;23;21001;-96
2022/02/23 04:47:12;;;;;;;32.92;14.68;;;0.30;99.90;;;;;;5192698;23;20058;-96
2022/02/23 04:49:38;;;;;;;29.55;14.48;;;0.50;99.90;;;;;;5102301;23;20705;-96
2022/02/23 04:52:04;;;;;;;29.52;13.95;;;0.60;99.90;;;;;;4979185;28;20046;-96
2022/02/23 04:54:30;;;;;;;27.65;13.18;;;0.70;99.90;;;;;;4977899;28;20497;-96
2022/02/23 04:56:55;;;;;;;25.23;12.60;;;0.80;99.90;;;;;;4978414;28;20143;-96
2022/02/23 04:59:21;;;;;;;20.45;12.55;;;1.00;99.90;;;;;;4976982;28;20034;-96
2022/02/23 05:01:47;;;;;;;26.98;13.98;;;1.20;99.90;;;;;;4978167;28;20023;-96
2022/02/23 05:04:12;;;;;;;20.77;12.68;;;1.30;99.90;;;;;;4977101;28;20019;-96
2022/02/23 05:06:38;;;;;;;16.65;11.27;;;1.40;99.90;;;;;;4977663;28;20054;-95
2022/02/23 05:09:04;;;;;;;19.60;11.25;;;1.50;99.90;;;;;;4976948;28;20022;-95
2022/02/23 05:11:29;;;;;;;17.77;10.63;;;1.60;99.90;;;;;;4977241;28;20509;-95
2022/02/23 05:13:55;;;;;;;18.80;10.40;;;1.60;99.90;;;;;;4976748;28;20381;-93
2022/02/23 05:16:21;;;;;;;20.02;11.18;;;1.70;99.90;;;;;;4976986;28;20031;-95
2022/02/23 05:18:47;;;;;;;15.40;10.07;;;1.80;99.90;;;;;;4976651;28;20393;-96
2022/02/23 05:21:12;;;;;;;19.40;11.07;;;1.80;99.90;;;;;;4977009;28;20060;-95
2022/02/23 05:23:38;;;;;;;18.27;10.60;;;1.80;99.90;;;;;;4976877;28;20023;-96
2022/02/23 05:26:04;;;;;;;21.10;11.57;;;1.90;99.90;;;;;;4976651;28;20055;-95
2022/02/23 05:28:32;;;;;;;18.75;11.63;;;1.90;99.90;;;;;;4976611;28;20414;-94
2022/02/23 05:31:00;;;;;;;19.15;11.45;;;1.90;99.90;;;;;;4976252;28;20033;-94
2022/02/23 05:33:26;;;;;;;18.15;10.98;;;1.90;99.90;;;;;;4976550;28;20499;-87
2022/02/23 05:35:52;;;;;;;18.85;11.45;;;1.90;99.90;;;;;;4976139;28;20031;-87
2022/02/23 05:38:17;;;;;;;19.40;12.07;;;1.90;99.90;;;;;;4977228;28;20027;-86
2022/02/23 05:40:43;;;;;;;47.33;24.10;;;1.90;99.90;;;;;;4976087;28;20058;-87
2022/02/23 05:43:08;;;;;;;91.93;37.65;;;1.80;99.90;;;;;;4977201;28;20078;-87
2022/02/23 05:45:34;;;;;;;88.05;36.15;;;1.80;99.90;;;;;;4975950;28;20022;-87
2022/02/23 05:48:00;;;;;;;53.78;24.38;;;1.80;99.90;;;;;;4976259;28;20031;-87
2022/02/23 05:50:25;;;;;;;32.72;16.40;;;1.80;99.90;;;;;;4975830;28;20051;-87
2022/02/23 05:52:51;;;;;;;24.08;12.98;;;1.70;99.90;;;;;;4977523;28;20037;-88
2022/02/23 05:55:17;;;;;;;24.17;12.50;;;1.80;99.90;;;;;;4976915;28;20044;-87
2022/02/23 05:57:42;;;;;;;20.75;11.93;;;1.70;99.90;;;;;;4977208;28;20041;-87
2022/02/23 06:00:09;;;;;;;23.25;13.00;;;1.80;99.90;;;;;;4977069;28;20034;-87
2022/02/23 06:02:35;;;;;;;25.08;14.32;;;1.70;99.90;;;;;;4975859;28;20113;-87
2022/02/23 06:05:00;;;;;;;21.38;13.18;;;1.80;99.90;;;;;;4975590;28;20110;-88
2022/02/23 06:07:26;;;;;;;23.00;13.85;;;1.80;99.90;;;;;;4975590;28;20034;-87
2022/02/23 06:09:52;;;;;;;28.48;14.68;;;1.90;99.90;;;;;;4976699;28;20026;-87
2022/02/23 06:12:17;;;;;;;24.55;13.20;;;1.90;99.90;;;;;;4975570;28;20394;-87
2022/02/23 06:14:43;;;;;;;23.00;11.70;;;1.90;99.90;;;;;;4976610;28;20034;-87
2022/02/23 06:17:09;;;;;;;23.33;12.15;;;2.00;99.90;;;;;;4976297;28;20027;-86
2022/02/23 06:19:34;;;;;;;25.73;13.00;;;2.10;99.90;;;;;;4976402;28;20486;-87
2022/02/23 06:22:00;;;;;;;22.48;12.02;;;2.20;99.90;;;;;;4975445;28;20034;-87
2022/02/23 06:24:26;;;;;;;23.48;12.05;;;2.20;99.90;;;;;;4975305;28;20018;-87
2022/02/23 06:26:51;;;;;;;19.83;10.50;;;2.30;99.90;;;;;;4976074;28;20354;-86
2022/02/23 06:29:18;;;;;;;17.88;10.18;;;2.40;99.90;;;;;;4975456;28;20027;-87
2022/02/23 06:31:57;;;;;;;17.52;9.75;;;2.40;99.90;;;;;;4976929;28;20030;-87
2022/02/23 06:34:23;;;;;;;16.55;9.75;;;2.50;99.90;;;;;;4975169;28;20034;-88
2022/02/23 06:36:48;;;;;;;15.88;9.93;;;2.60;99.90;;;;;;4975116;28;20038;-87
2022/02/23 06:39:14;;;;;;;16.50;9.75;;;2.60;99.90;;;;;;4974971;28;20030;-88
2022/02/23 06:41:40;;;;;;;19.15;10.82;;;2.70;99.90;;;;;;4975055;28;20027;-88
2022/02/23 06:44:06;;;;;;;16.75;9.63;;;2.80;99.90;;;;;;4974833;28;20099;-87
2022/02/23 06:46:32;;;;;;;19.98;10.35;;;2.90;99.90;;;;;;4976347;28;20027;-87
2022/02/23 06:48:58;;;;;;;14.82;9.40;;;3.00;99.90;;;;;;4974940;28;20023;-88
2022/02/23 06:51:23;;;;;;;15.52;9.45;;;3.00;99.90;;;;;;4974891;28;20097;-87
2022/02/23 06:53:50;;;;;;;21.55;9.88;;;3.10;99.90;;;;;;4974909;28;20034;-89
2022/02/23 06:56:16;;;;;;;13.02;8.63;;;3.20;99.90;;;;;;4974861;28;20026;-88
2022/02/23 06:58:46;;;;;;;13.38;8.65;;;3.20;99.90;;;;;;4974673;28;20114;-87
2022/02/23 07:01:16;;;;;;;15.63;8.52;;;3.30;99.90;;;;;;4974745;28;20038;-88
2022/02/23 07:03:42;;;;;;;14.25;8.05;;;3.30;99.90;;;;;;4974406;28;20039;-92
2022/02/23 07:06:08;;;;;;;14.45;8.55;;;3.40;99.90;;;;;;4974207;28;20050;-88
2022/02/23 07:08:34;;;;;;;11.98;7.47;;;3.50;99.90;;;;;;4974565;28;20461;-88
2022/02/23 07:10:59;;;;;;;12.02;7.78;;;3.50;99.90;;;;;;4974728;28;20038;-89
2022/02/23 07:13:25;;;;;;;15.88;7.90;;;3.50;99.90;;;;;;4976030;28;20034;-88
2022/02/23 07:15:51;;;;;;;12.98;6.93;;;3.60;99.90;;;;;;4974517;28;20501;-89
2022/02/23 07:18:16;;;;;;;11.93;7.35;;;3.60;99.90;;;;;;4974569;28;20031;-90
2022/02/23 07:20:42;;;;;;;15.25;8.02;;;3.60;99.90;;;;;;4975864;28;20485;-89
2022/02/23 07:23:07;;;;;;;18.35;8.10;;;3.60;99.90;;;;;;4974652;28;20023;-90
2022/02/23 07:25:33;;;;;;;18.13;8.05;;;3.70;99.90;;;;;;4991634;28;20034;-90
2022/02/23 07:27:59;;;;;;;15.63;8.40;;;3.70;99.90;;;;;;4974366;28;20035;-88
2022/02/23 07:30:25;;;;;;;16.00;8.38;;;3.80;99.90;;;;;;4974524;28;20037;-89
2022/02/23 07:32:51;;;;;;;14.50;7.35;;;3.70;99.90;;;;;;4974462;28;20034;-88
2022/02/23 07:35:17;;;;;;;11.88;7.05;;;3.80;99.90;;;;;;4974433;28;20027;-89
2022/02/23 07:37:45;;;;;;;20.17;7.75;;;3.80;99.90;;;;;;4974419;28;20039;-86
2022/02/23 07:40:17;;;;;;;12.57;7.30;;;3.80;99.90;;;;;;4974414;28;20057;-90
2022/02/23 07:42:43;;;;;;;12.70;6.88;;;3.80;99.90;;;;;;4974447;28;20034;-89
2022/02/23 07:45:09;;;;;;;11.55;6.60;;;3.80;99.90;;;;;;4974448;28;20027;-89
2022/02/23 07:47:35;;;;;;;10.43;5.97;;;3.80;99.90;;;;;;4974262;28;20046;-90
2022/02/23 07:50:02;;;;;;;10.27;5.90;;;3.90;99.90;;;;;;4974024;28;20046;-89
2022/02/23 07:52:29;;;;;;;12.18;6.13;;;3.90;99.90;;;;;;4974157;28;20035;-90
2022/02/23 07:54:55;;;;;;;11.40;7.10;;;4.00;99.90;;;;;;4974216;28;20477;-89
2022/02/23 07:57:21;;;;;;;11.38;7.30;;;4.00;99.90;;;;;;4974362;28;20027;-90
2022/02/23 07:59:47;;;;;;;11.80;6.63;;;4.00;99.90;;;;;;4974115;28;20045;-89
2022/02/23 08:02:14;;;;;;;15.00;8.77;;;4.10;99.90;;;;;;4974072;28;20556;-91
2022/02/23 08:04:40;;;;;;;12.18;7.70;;;4.10;99.90;;;;;;4974198;28;20116;-91
2022/02/23 08:07:06;;;;;;;14.27;7.88;;;4.10;99.90;;;;;;4974006;28;20027;-90
2022/02/23 08:09:32;;;;;;;11.60;6.45;;;4.10;99.90;;;;;;4974071;28;20030;-92
2022/02/23 08:12:00;;;;;;;20.75;11.80;;;4.10;99.90;;;;;;4974035;28;20031;-91
2022/02/23 08:14:27;;;;;;;11.77;6.82;;;4.20;99.90;;;;;;4974172;28;20469;-91
2022/02/23 08:19:38;;;;;;;13.27;6.20;;;4.30;99.90;;;;;;4979002;28;20085;-89
2022/02/23 08:22:05;;;;;;;9.10;6.03;;;4.30;99.90;;;;;;4977667;28;20027;-90
2022/02/23 08:24:38;;;;;;;13.23;6.50;;;4.40;99.60;;;;;;4977547;28;20019;-92
2022/02/23 08:27:06;;;;;;;13.65;6.63;;;4.50;99.40;;;;;;4978498;28;20410;-90
2022/02/23 08:29:34;;;;;;;12.73;7.43;;;4.50;99.60;;;;;;4977698;28;20039;-90
2022/02/23 08:32:00;;;;;;;14.07;7.80;;;4.50;99.50;;;;;;4978456;28;20030;-91
2022/02/23 08:34:26;;;;;;;12.88;6.82;;;4.60;99.20;;;;;;4977587;28;20397;-94
2022/02/23 08:36:52;;;;;;;11.10;6.05;;;4.60;99.50;;;;;;4977859;28;20488;-88
2022/02/23 08:39:36;;;;;;;11.30;5.32;;;4.70;97.30;;;;;;4977507;28;20138;-89
2022/02/23 08:42:07;;;;;;;9.95;5.90;;;4.80;97.00;;;;;;4977536;28;20050;-90
2022/02/23 08:44:33;;;;;;;11.30;5.60;;;4.90;97.50;;;;;;4977304;28;20432;-91
2022/02/23 08:46:59;;;;;;;9.63;5.97;;;4.90;97.30;;;;;;4977343;28;20030;-91
2022/02/23 08:49:25;;;;;;;15.38;6.93;;;5.00;97.30;;;;;;4977169;28;20031;-90
2022/02/23 08:51:51;;;;;;;10.85;6.80;;;5.00;96.90;;;;;;4977224;28;20046;-89
2022/02/23 08:54:18;;;;;;;12.55;7.05;;;5.10;96.60;;;;;;4977140;28;20139;-91
2022/02/23 08:56:44;;;;;;;12.07;7.13;;;5.10;96.70;;;;;;4977590;28;20489;-91
2022/02/23 08:59:10;;;;;;;11.77;6.93;;;5.20;96.40;;;;;;4977593;28;20035;-91
2022/02/23 09:01:36;;;;;;;13.68;6.45;;;5.30;96.70;;;;;;4977145;28;20386;-93
2022/02/23 09:04:03;;;;;;;13.38;7.28;;;5.30;96.10;;;;;;4977136;28;20023;-92
2022/02/23 09:06:30;;;;;;;10.77;6.55;;;5.50;96.70;;;;;;4976924;28;20026;-93
2022/02/23 09:08:56;;;;;;;10.38;6.15;;;5.70;96.30;;;;;;4976931;28;20397;-91
2022/02/23 09:11:21;;;;;;;7.55;5.60;;;5.90;95.20;;;;;;4976842;28;20069;-91
2022/02/23 09:13:47;;;;;;;10.30;4.45;;;6.00;94.60;;;;;;4976759;28;20086;-92
2022/02/23 09:16:13;;;;;;;8.20;5.13;;;6.20;93.80;;;;;;4976895;28;20100;-92
2022/02/23 09:18:38;;;;;;;9.13;4.70;;;6.30;92.70;;;;;;4976701;28;20066;-90
2022/02/23 09:21:04;;;;;;;9.02;5.13;;;6.30;92.70;;;;;;4976862;28;20935;-93
2022/02/23 09:23:32;;;;;;;12.98;6.13;;;6.30;91.80;;;;;;4976601;28;20030;-92
2022/02/23 09:25:57;;;;;;;23.30;9.05;;;6.30;91.40;;;;;;4976689;28;20023;-91
2022/02/23 09:28:23;;;;;;;12.45;5.43;;;6.30;91.10;;;;;;4976162;28;20082;-91
2022/02/23 09:30:50;;;;;;;6.60;4.50;;;6.20;90.50;;;;;;4976398;28;20065;-93
2022/02/23 09:33:16;;;;;;;7.13;4.07;;;6.10;90.20;;;;;;4976509;28;20027;-91
2022/02/23 09:35:45;;;;;;;7.43;4.53;;;6.00;90.50;;;;;;4977480;28;20031;-89
2022/02/23 09:38:12;;;;;;;6.80;4.27;;;5.90;90.20;;;;;;4977516;28;20049;-91
2022/02/23 09:40:41;;;;;;;15.60;8.60;;;5.90;90.20;;;;;;4976251;28;20272;-91
2022/02/23 09:43:08;;;;;;;11.00;6.00;;;5.80;89.60;;;;;;4976288;28;20023;-91
2022/02/23 09:45:36;;;;;;;12.80;7.28;;;5.80;87.10;;;;;;4976301;28;20042;-90
2022/02/23 09:48:02;;;;;;;8.55;5.07;;;5.80;88.00;;;;;;4976239;28;20433;-88
2022/02/23 09:50:27;;;;;;;7.13;4.53;;;5.70;86.50;;;;;;4976149;28;20110;-92
2022/02/23 09:52:54;;;;;;;9.05;4.82;;;5.70;86.10;;;;;;4976226;28;20121;-90
2022/02/23 09:55:24;;;;;;;13.10;7.72;;;5.60;87.20;;;;;;4975873;28;20117;-89
2022/02/23 09:57:50;;;;;;;8.52;4.30;;;5.60;86.80;;;;;;4976825;28;20081;-91
2022/02/23 10:00:16;;;;;;;7.53;4.65;;;5.60;86.60;;;;;;4975895;28;20035;-93
2022/02/23 10:02:41;;;;;;;8.18;4.32;;;5.60;87.50;;;;;;4975963;28;20037;-92
2022/02/23 10:05:08;;;;;;;6.80;4.30;;;5.70;84.40;;;;;;4976669;28;20023;-89
2022/02/23 10:07:40;;;;;;;5.80;4.30;;;5.70;82.00;;;;;;4975800;28;20031;-90
2022/02/23 10:10:08;;;;;;;10.32;3.85;;;5.70;80.40;;;;;;4976740;28;20026;-90
2022/02/23 10:12:35;;;;;;;5.20;3.92;;;5.60;80.70;;;;;;4975954;28;20038;-89
2022/02/23 10:15:12;;;;;;;5.65;3.72;;;5.60;79.70;;;;;;4976889;28;20069;-90
2022/02/23 10:17:44;;;;;;;6.45;3.55;;;5.60;79.70;;;;;;4976550;28;20030;-90
2022/02/23 10:20:23;;;;;;;5.97;3.65;;;5.60;78.40;;;;;;4975505;28;20445;-89
2022/02/23 10:22:50;;;;;;;8.20;3.40;;;5.60;78.50;;;;;;4976133;28;20453;-91
2022/02/23 10:25:27;;;;;;;6.53;3.65;;;5.60;75.00;;;;;;4975256;28;20111;-90
2022/02/23 10:28:10;;;;;;;4.97;3.22;;;5.60;75.00;;;;;;4975662;28;20127;-92
2022/02/23 10:30:49;;;;;;;9.60;3.83;;;5.60;75.10;;;;;;4975429;28;20026;-90
2022/02/23 10:33:18;;;;;;;7.95;3.70;;;5.60;75.60;;;;;;4975440;28;20030;-90
2022/02/23 10:36:18;;;;;;;8.60;3.50;;;5.60;75.80;;;;;;4976367;28;20465;-90
2022/02/23 10:38:51;;;;;;;5.72;3.95;;;5.60;75.50;;;;;;4964853;28;20045;-91
2022/02/23 10:41:30;;;;;;;7.32;4.00;;;5.60;76.20;;;;;;4974419;28;20037;-88
2022/02/23 10:43:56;;;;;;;8.63;4.13;;;5.50;76.00;;;;;;4975254;28;20046;-89
2022/02/23 10:46:23;;;;;;;11.90;5.55;;;5.60;75.50;;;;;;4974928;28;20434;-90
2022/02/23 10:48:58;;;;;;;10.10;5.15;;;5.60;72.80;;;;;;4975077;28;20026;-90
2022/02/23 10:51:29;;;;;;;4.97;3.50;;;5.50;72.70;;;;;;4974904;28;20042;-91
2022/02/23 10:54:03;;;;;;;5.15;3.40;;;5.50;72.60;;;;;;4975009;28;20027;-91
2022/02/23 10:56:31;;;;;;;6.22;3.50;;;5.60;73.50;;;;;;4975059;28;20058;-90
2022/02/23 10:59:15;;;;;;;6.90;4.20;;;5.60;73.50;;;;;;4974867;28;20030;-92
2022/02/23 11:02:01;;;;;;;5.03;2.95;;;5.60;73.20;;;;;;4975019;28;20031;-90
2022/02/23 11:04:27;;;;;;;3.95;3.10;;;5.60;73.80;;;;;;4973147;28;20033;-89
2022/02/23 11:06:54;;;;;;;3.80;2.80;;;5.60;74.20;;;;;;4974931;28;20446;-90
2022/02/23 11:09:19;;;;;;;5.80;2.97;;;5.60;73.30;;;;;;4974761;28;20034;-91
2022/02/23 11:11:47;;;;;;;6.30;3.30;;;5.60;74.20;;;;;;4974838;28;20031;-89
2022/02/23 11:14:17;;;;;;;4.32;3.22;;;5.60;74.30;;;;;;4974735;28;20085;-89
2022/02/23 11:16:51;;;;;;;6.13;3.63;;;5.70;74.20;;;;;;4974760;28;20027;-90
2022/02/23 11:19:22;;;;;;;4.53;3.15;;;5.70;74.80;;;;;;4974625;28;20062;-89
2022/02/23 11:21:48;;;;;;;9.15;3.78;;;5.70;74.70;;;;;;4974931;28;20027;-89
2022/02/23 11:24:14;;;;;;;10.98;4.68;;;5.70;73.50;;;;;;4974652;28;20074;-89
2022/02/23 11:26:42;;;;;;;5.45;3.67;;;5.70;74.30;;;;;;4974662;28;20102;-88
2022/02/23 11:29:16;;;;;;;47.10;20.38;;;5.80;73.80;;;;;;4974487;28;20074;-89
2022/02/23 11:31:47;;;;;;;19.40;8.73;;;5.80;73.30;;;;;;4974604;28;20360;-88
2022/02/23 11:34:13;;;;;;;157.93;67.47;;;5.80;72.30;;;;;;4974453;28;20030;-90
2022/02/23 11:36:47;;;;;;;123.30;61.55;;;5.80;72.40;;;;;;4974540;28;20023;-89
2022/02/23 11:39:17;;;;;;;23.40;13.43;;;5.80;72.40;;;;;;4975594;28;20034;-89
2022/02/23 11:41:52;;;;;;;29.80;17.10;;;5.80;72.30;;;;;;4974434;28;20027;-89
2022/02/23 11:44:23;;;;;;;13.32;8.07;;;5.80;72.20;;;;;;4974717;28;20030;-90
2022/02/23 11:46:52;;;;;;;6.28;3.47;;;5.80;71.40;;;;;;4974552;28;20051;-89
2022/02/23 11:49:21;;;;;;;9.95;4.50;;;5.90;71.10;;;;;;4974291;28;20049;-89
2022/02/23 11:51:47;;;;;;;6.53;4.75;;;5.80;71.50;;;;;;4974822;28;20051;-89
2022/02/23 11:54:13;;;;;;;52.47;32.60;;;5.90;71.50;;;;;;4978202;28;20026;-89
2022/02/23 11:56:48;;;;;;;76.05;47.20;;;5.90;72.50;;;;;;4978284;28;20509;-89
2022/02/23 11:59:46;;;;;;;10.23;7.38;;;5.90;71.50;;;;;;4978560;28;20062;-87
2022/02/23 12:02:13;;;;;;;6.80;4.63;;;5.90;69.50;;;;;;4979084;28;20082;-89
2022/02/23 12:04:52;;;;;;;8.88;6.30;;;5.90;69.60;;;;;;4979339;28;20480;-90
2022/02/23 12:07:18;;;;;;;14.23;8.48;;;6.00;70.60;;;;;;4978795;28;20492;-87
2022/02/23 12:09:57;;;;;;;10.57;4.47;;;6.00;70.50;;;;;;4978419;28;20031;-87
2022/02/23 12:12:29;;;;;;;7.85;4.30;;;6.10;71.40;;;;;;4978658;28;20030;-87
2022/02/23 12:14:55;;;;;;;15.85;8.27;;;6.10;71.50;;;;;;4978831;28;20035;-84
2022/02/23 12:17:43;;;;;;;6.40;4.00;;;6.10;70.20;;;;;;4979088;28;20038;-89
2022/02/23 12:20:27;;;;;;;16.77;9.55;;;6.20;68.90;;;;;;4978367;28;20019;-88
2022/02/23 12:23:09;;;;;;;12.30;6.00;;;6.20;69.50;;;;;;4978171;28;20038;-91
2022/02/23 12:25:49;;;;;;;6.97;3.38;;;6.20;67.50;;;;;;4979239;28;20027;-89
2022/02/23 12:28:17;;;;;;;10.02;4.03;;;6.30;66.60;;;;;;4978320;28;20023;-91
2022/02/23 12:30:50;;;;;;;14.05;7.60;;;6.30;66.60;;;;;;4978656;28;20042;-90
2022/02/23 12:33:16;;;;;;;8.02;4.45;;;6.40;67.80;;;;;;4979096;28;20044;-92
2022/02/23 12:35:44;;;;;;;9.27;5.50;;;6.30;66.20;;;;;;4978674;28;20042;-89
2022/02/23 12:38:11;;;;;;;7.75;5.47;;;6.30;67.20;;;;;;4978623;28;20097;-87
2022/02/23 12:40:39;;;;;;;8.07;3.95;;;6.30;67.30;;;;;;4977942;28;20030;-88
2022/02/23 12:43:05;;;;;;;4.75;3.53;;;6.30;68.40;;;;;;4977950;28;20046;-91
2022/02/23 12:45:31;;;;;;;7.95;4.85;;;6.30;69.10;;;;;;4978402;28;20387;-90
2022/02/23 12:48:01;;;;;;;21.02;4.00;;;6.40;68.90;;;;;;4978737;28;20022;-90
2022/02/23 12:50:28;;;;;;;8.77;4.22;;;6.50;67.70;;;;;;4977333;28;20066;-89
2022/02/23 12:52:55;;;;;;;7.40;3.70;;;6.50;68.20;;;;;;4977308;28;20118;-90
2022/02/23 12:55:20;;;;;;;8.63;5.28;;;6.60;68.10;;;;;;4977224;28;20026;-91
2022/02/23 12:57:52;;;;;;;7.20;4.22;;;6.60;68.30;;;;;;4977362;28;20038;-89
2022/02/23 13:00:23;;;;;;;6.43;4.47;;;6.70;68.00;;;;;;4977038;28;20481;-92
2022/02/23 13:02:48;;;;;;;7.40;4.50;;;6.70;68.50;;;;;;4976984;28;20074;-90
2022/02/23 13:05:17;;;;;;;6.97;4.20;;;6.70;67.80;;;;;;4976395;28;20023;-91
2022/02/23 13:07:43;;;;;;;5.57;3.72;;;6.70;68.50;;;;;;4976947;28;20023;-91
2022/02/23 13:10:09;;;;;;;5.78;4.22;;;6.70;68.20;;;;;;4976846;28;20030;-91
2022/02/23 13:12:36;;;;;;;6.95;4.22;;;6.70;68.50;;;;;;4976923;28;20122;-91
2022/02/23 13:15:05;;;;;;;7.00;4.75;;;6.70;68.30;;;;;;4976899;28;20073;-91
2022/02/23 13:17:32;;;;;;;6.60;3.70;;;6.80;67.60;;;;;;4977272;28;20058;-91
2022/02/23 13:19:58;;;;;;;5.47;3.92;;;6.80;67.50;;;;;;4976542;28;20038;-91
2022/02/23 13:22:31;;;;;;;5.78;4.15;;;6.80;68.00;;;;;;4977162;28;20026;-91
2022/02/23 13:24:59;;;;;;;11.05;4.28;;;6.80;67.60;;;;;;4976710;28;20027;-91
2022/02/23 13:27:27;;;;;;;6.50;4.10;;;6.90;68.00;;;;;;4976769;28;20054;-91
2022/02/23 13:30:05;;;;;;;7.13;3.65;;;6.90;67.60;;;;;;4976461;28;20023;-91
2022/02/23 13:32:37;;;;;;;5.32;3.42;;;6.90;66.90;;;;;;4976581;28;20054;-90
2022/02/23 13:35:14;;;;;;;5.13;3.42;;;6.90;66.10;;;;;;4976387;28;20038;-91
2022/02/23 13:37:43;;;;;;;6.38;3.60;;;6.90;65.20;;;;;;4976473;28;20038;-92
2022/02/23 13:40:21;;;;;;;4.78;3.22;;;6.90;63.60;;;;;;4976363;28;20023;-91
2022/02/23 13:43:00;;;;;;;4.47;3.30;;;6.90;64.40;;;;;;4976444;28;20023;-91
2022/02/23 13:45:29;;;;;;;4.13;3.53;;;6.90;63.60;;;;;;4976295;28;20029;-91
2022/02/23 13:48:00;;;;;;;12.18;5.13;;;6.90;64.20;;;;;;4976847;28;20030;-91
2022/02/23 13:50:26;;;;;;;9.23;4.95;;;6.90;64.70;;;;;;4975941;28;20117;-92
2022/02/23 13:52:57;;;;;;;7.65;4.57;;;6.90;64.80;;;;;;4976611;28;20028;-91
2022/02/23 13:55:29;;;;;;;11.88;7.45;;;6.80;65.50;;;;;;4976006;28;20065;-91
2022/02/23 13:57:57;;;;;;;8.10;5.80;;;6.80;65.60;;;;;;4976373;28;20026;-91
2022/02/23 14:00:28;;;;;;;7.10;4.28;;;6.90;65.60;;;;;;4975746;28;20125;-91
2022/02/23 14:03:21;;;;;;;7.57;4.93;;;6.90;65.50;;;;;;4975896;28;20117;-91
2022/02/23 14:05:57;;;;;;;9.60;4.47;;;6.80;65.40;;;;;;4969444;28;20089;-91
2022/02/23 14:08:54;;;;;;;9.15;5.10;;;6.90;66.10;;;;;;4975679;28;20144;-91
2022/02/23 14:11:27;;;;;;;9.23;5.70;;;6.90;65.70;;;;;;4975499;28;20037;-91
2022/02/23 14:13:57;;;;;;;15.77;9.00;;;6.90;65.80;;;;;;4975545;28;20485;-90
2022/02/23 14:16:40;;;;;;;14.70;6.20;;;6.90;66.90;;;;;;4975957;28;20042;-89
2022/02/23 14:19:23;;;;;;;60.15;26.98;;;6.80;67.90;;;;;;4975388;28;20397;-90
2022/02/23 14:21:54;;;;;;;19.35;9.57;;;6.70;68.30;;;;;;4976400;28;20022;-90